METAR AND TAF INFORMATION
METAR FOR CYNM
ADDS - METARS form results

(0038 UTC 25 September 2017)
Data provider http://aviationweather.gov/adds/metars/
 
METAR text: CYNM 250000Z AUTO 13005KT 9SM FEW070 BKN130 15/14 A3001 RMK SLP168 DENSITY ALT 1000FT
Conditions at: CYNM (MATAGAMI AIRPORT, QC, CA) observed 0000 UTC 25 September 2017
Temperature: 15.0°C (59°F)
Dewpoint: 14.0°C (57°F) [RH = 94%]
Pressure (altimeter): 30.01 inches Hg (1016.3 mb)
[Sea-level pressure: 1016.8 mb]
Winds: from the SE (130 degrees) at 6 MPH (5 knots; 2.6 m/s)
Visibility: 9 miles (14 km)
Ceiling: 13000 feet AGL
Clouds: few clouds at 7000 feet AGL
broken clouds at 13000 feet AGL
Weather: no significant weather observed at this time

 AIRPORT MAP

 RUNWAY INFORMATION
Runway 15 Runway length 5000 ft Runway width 100 ft
Runway elevation 908 ft Runway displaced threshold 0 ft Runway heading 134
Runway 33 Runway length 5000 ft Runway width 100 ft
Runway elevation 918 ft Runway displaced threshold 0 ft Runway heading 314

 AIRPORT FREQUENCIES
Type AWOS Name AWOS Frequency 127.45 MHZ
Type RCO Name QUEBEC RDO Frequency 123.55 MHZ
Type UNIC Name ATF/UNICOM Frequency 122.8 MHZ

 AIRPORT NEAR NAVIGATION AIDS
Type NDB Name Matagami Frequency 278 KHZ



Powered by Virtual Airlines Manager [v2.6.2]

SI TIENES ALGUNA DUDA SOBRE LA WEB CONTACTA: webmaster@taca-virtual.org